Time;durP1;ratioP1;P1;durP2;ratioP2;P2;SDS_P1;SDS_P2;PMS_P1;PMS_P2;Temp;Humidity;BMP_temperature;BMP_pressure;BME280_temperature;BME280_humidity;BME280_pressure;Samples;Min_cycle;Max_cycle;Signal;HPM_P1;HPM_P2
2023/09/27 00:01:10;;;;;;;7.38;3.50;;;13.70;82.60;;;;;;5055582;28;20041;-77
2023/09/27 00:03:36;;;;;;;4.60;3.08;;;13.70;82.50;;;;;;5038055;28;20029;-77
2023/09/27 00:06:03;;;;;;;5.03;3.58;;;13.70;82.40;;;;;;5055763;28;20071;-79
2023/09/27 00:08:28;;;;;;;5.25;3.50;;;13.60;82.90;;;;;;5037911;28;20029;-82
2023/09/27 00:10:54;;;;;;;6.50;3.33;;;13.50;83.40;;;;;;5037722;28;20145;-77
2023/09/27 00:13:21;;;;;;;6.65;3.60;;;13.50;83.50;;;;;;5004628;28;20448;-77
2023/09/27 00:15:48;;;;;;;7.63;3.47;;;13.50;83.90;;;;;;5038517;28;20021;-77
2023/09/27 00:18:14;;;;;;;6.50;3.10;;;13.50;83.60;;;;;;5037735;28;20381;-78
2023/09/27 00:20:40;;;;;;;6.43;3.22;;;13.50;83.10;;;;;;5021375;28;20030;-76
2023/09/27 00:23:08;;;;;;;4.25;3.45;;;13.40;83.00;;;;;;5037557;28;20025;-76
2023/09/27 00:25:35;;;;;;;5.53;3.00;;;13.40;83.30;;;;;;5020797;28;20029;-77
2023/09/27 00:28:00;;;;;;;6.05;3.42;;;13.30;84.00;;;;;;5037062;28;20033;-77
2023/09/27 00:30:27;;;;;;;8.23;3.50;;;13.40;83.80;;;;;;5020773;28;20025;-78
2023/09/27 00:32:54;;;;;;;5.97;3.75;;;13.30;84.40;;;;;;5036910;28;20043;-78
2023/09/27 00:35:22;;;;;;;9.73;5.13;;;13.20;84.50;;;;;;5037445;28;20021;-78
2023/09/27 00:37:49;;;;;;;8.60;5.10;;;13.20;84.90;;;;;;5037227;28;20031;-77
2023/09/27 00:40:18;;;;;;;6.47;4.75;;;13.10;85.50;;;;;;5037039;28;20024;-77
2023/09/27 00:42:47;;;;;;;5.40;4.03;;;13.00;85.30;;;;;;5037166;28;20481;-78
2023/09/27 00:45:13;;;;;;;5.60;3.97;;;13.10;85.40;;;;;;5054712;28;20517;-80
2023/09/27 00:47:39;;;;;;;4.43;3.88;;;13.10;85.30;;;;;;5037158;28;20028;-80
2023/09/27 00:50:09;;;;;;;6.93;3.78;;;13.20;85.10;;;;;;5037107;28;20020;-88
2023/09/27 00:52:36;;;;;;;6.90;3.72;;;13.30;85.00;;;;;;5038807;28;20377;-88
2023/09/27 00:55:02;;;;;;;5.88;3.72;;;13.30;84.30;;;;;;5038805;28;20028;-89
2023/09/27 00:57:28;;;;;;;7.53;4.13;;;13.30;82.90;;;;;;5038547;28;20545;-88
2023/09/27 00:59:55;;;;;;;6.07;3.22;;;13.30;82.50;;;;;;5068848;28;20025;-88
2023/09/27 01:02:20;;;;;;;11.75;4.10;;;13.20;83.00;;;;;;5061711;28;20017;-84
2023/09/27 01:04:47;;;;;;;8.32;3.60;;;13.10;83.40;;;;;;5079128;28;20069;-82
2023/09/27 01:07:13;;;;;;;9.07;4.65;;;13.00;83.50;;;;;;5044239;28;20033;-88
2023/09/27 01:09:40;;;;;;;6.72;4.13;;;13.00;83.70;;;;;;5022626;28;20120;-88
2023/09/27 01:12:06;;;;;;;9.80;4.10;;;13.00;83.70;;;;;;5039291;28;20066;-87
2023/09/27 01:14:32;;;;;;;6.63;4.13;;;13.00;83.50;;;;;;5039559;28;20447;-88
2023/09/27 01:17:09;;;;;;;8.07;3.60;;;13.00;83.20;;;;;;5023731;28;20021;-88
2023/09/27 01:19:35;;;;;;;5.40;3.50;;;13.00;83.40;;;;;;5024408;28;20025;-90
2023/09/27 01:22:00;;;;;;;7.90;4.55;;;13.00;83.30;;;;;;5055490;28;20059;-88
2023/09/27 01:24:26;;;;;;;5.82;3.67;;;13.00;83.40;;;;;;5041262;28;20025;-88
2023/09/27 01:26:54;;;;;;;5.30;4.00;;;13.00;83.20;;;;;;5040144;28;20029;-90
2023/09/27 01:29:21;;;;;;;8.85;4.47;;;13.00;82.90;;;;;;5058372;28;20024;-88
2023/09/27 01:31:46;;;;;;;4.80;3.83;;;13.00;82.80;;;;;;5045740;28;20052;-88
2023/09/27 01:34:12;;;;;;;6.30;4.03;;;13.10;82.70;;;;;;5039817;28;20473;-89
2023/09/27 01:36:38;;;;;;;6.20;4.10;;;13.10;83.30;;;;;;5041522;28;20021;-88
2023/09/27 01:39:03;;;;;;;15.40;4.50;;;13.10;82.30;;;;;;5041269;28;20028;-88
2023/09/27 01:41:30;;;;;;;7.57;4.50;;;13.00;82.00;;;;;;5048300;28;20013;-85
2023/09/27 01:43:56;;;;;;;5.25;4.38;;;13.00;82.10;;;;;;5039265;28;20051;-77
2023/09/27 01:46:23;;;;;;;7.28;4.50;;;13.00;82.10;;;;;;5047034;28;20041;-80
2023/09/27 01:48:48;;;;;;;7.20;4.30;;;13.00;82.40;;;;;;5030913;28;20481;-77
2023/09/27 01:51:14;;;;;;;5.93;3.42;;;12.90;81.70;;;;;;5048362;28;20029;-82
2023/09/27 01:53:40;;;;;;;5.97;3.22;;;12.90;82.10;;;;;;5065172;28;20044;-77
2023/09/27 01:56:06;;;;;;;5.68;4.10;;;12.90;82.20;;;;;;5047313;28;20025;-84
2023/09/27 01:58:32;;;;;;;6.20;3.90;;;12.90;82.20;;;;;;5042879;28;20127;-77
2023/09/27 02:00:59;;;;;;;4.50;4.05;;;12.90;82.10;;;;;;5061841;28;20032;-82
2023/09/27 02:03:24;;;;;;;9.25;3.88;;;12.80;81.80;;;;;;5041201;28;20053;-80
2023/09/27 02:05:52;;;;;;;6.72;3.55;;;12.80;81.90;;;;;;5037490;28;20039;-78
2023/09/27 02:08:19;;;;;;;7.35;4.07;;;12.70;82.10;;;;;;5036026;28;20074;-77
2023/09/27 02:10:49;;;;;;;6.68;4.00;;;12.70;82.20;;;;;;5035792;28;20044;-81
2023/09/27 02:13:16;;;;;;;9.20;4.40;;;12.70;82.50;;;;;;5036721;28;20028;-84
2023/09/27 02:15:43;;;;;;;5.28;4.15;;;12.70;82.90;;;;;;5036736;28;20025;-80
2023/09/27 02:18:09;;;;;;;6.07;3.80;;;12.60;82.90;;;;;;5036756;28;20025;-84
2023/09/27 02:20:35;;;;;;;7.18;4.03;;;12.70;83.00;;;;;;5042075;28;20383;-80
2023/09/27 02:23:00;;;;;;;5.18;3.50;;;12.60;82.90;;;;;;5055911;28;20079;-86
2023/09/27 02:25:27;;;;;;;7.07;3.35;;;12.60;83.50;;;;;;5053794;28;20029;-76
2023/09/27 02:27:52;;;;;;;4.78;3.60;;;12.60;83.50;;;;;;5035230;28;20059;-78
2023/09/27 02:30:18;;;;;;;5.13;3.65;;;12.50;83.80;;;;;;5018776;28;20053;-78
2023/09/27 02:32:47;;;;;;;4.28;3.47;;;12.50;83.80;;;;;;5035672;28;20060;-78
2023/09/27 02:35:14;;;;;;;4.30;3.50;;;12.50;83.80;;;;;;5036065;28;20035;-78
2023/09/27 02:37:41;;;;;;;5.65;3.50;;;12.50;83.60;;;;;;5037291;28;20078;-78
2023/09/27 02:40:11;;;;;;;4.05;3.25;;;12.50;83.60;;;;;;5041279;28;20036;-78
2023/09/27 02:42:40;;;;;;;7.93;3.30;;;12.40;83.20;;;;;;5057135;28;20076;-77
2023/09/27 02:45:08;;;;;;;3.67;3.38;;;12.40;83.10;;;;;;5055402;28;20080;-79
2023/09/27 02:47:34;;;;;;;5.38;3.25;;;12.40;83.20;;;;;;5037770;28;20053;-80
2023/09/27 02:50:01;;;;;;;7.15;3.83;;;12.40;83.10;;;;;;5036507;28;20024;-82
2023/09/27 02:52:26;;;;;;;4.93;3.65;;;12.40;82.90;;;;;;5057141;28;20017;-85
2023/09/27 02:54:53;;;;;;;4.13;3.13;;;12.40;82.30;;;;;;5041013;28;20158;-76
2023/09/27 02:57:19;;;;;;;4.20;3.33;;;12.40;82.20;;;;;;5042970;28;20025;-89
2023/09/27 02:59:45;;;;;;;4.68;3.45;;;12.40;82.20;;;;;;5045975;28;20029;-88
2023/09/27 03:02:11;;;;;;;3.40;3.10;;;12.40;82.40;;;;;;5046643;28;20033;-90
2023/09/27 03:04:36;;;;;;;4.68;3.40;;;12.30;82.90;;;;;;5040720;28;20022;-87
2023/09/27 03:07:02;;;;;;;3.10;2.80;;;12.30;82.90;;;;;;5041579;28;20124;-89
2023/09/27 03:09:28;;;;;;;5.38;4.15;;;12.20;82.80;;;;;;5040715;28;20350;-89
2023/09/27 03:11:54;;;;;;;4.57;3.58;;;12.20;82.90;;;;;;5058647;28;20025;-90
2023/09/27 03:14:20;;;;;;;4.70;3.38;;;12.20;83.20;;;;;;5041152;28;20033;-89
2023/09/27 03:16:45;;;;;;;5.00;3.65;;;12.20;83.50;;;;;;5041257;28;20044;-90
2023/09/27 03:19:11;;;;;;;5.22;3.42;;;12.20;83.50;;;;;;5040507;28;20112;-90
2023/09/27 03:21:36;;;;;;;4.57;3.40;;;12.20;83.70;;;;;;5040390;28;20025;-90
2023/09/27 03:24:03;;;;;;;5.00;3.70;;;12.10;84.00;;;;;;5040427;28;20021;-90
2023/09/27 03:26:28;;;;;;;5.05;3.38;;;12.10;83.80;;;;;;5023723;28;20029;-87
2023/09/27 03:28:54;;;;;;;3.75;3.08;;;12.20;83.40;;;;;;5057167;28;20028;-87
2023/09/27 03:31:21;;;;;;;4.63;3.40;;;12.10;83.40;;;;;;5040234;28;20029;-89
2023/09/27 03:33:47;;;;;;;4.55;3.17;;;12.10;83.50;;;;;;5040564;28;20033;-90
2023/09/27 03:36:13;;;;;;;4.90;2.83;;;12.10;83.40;;;;;;5041336;28;20515;-88
2023/09/27 03:38:38;;;;;;;4.50;2.78;;;12.00;83.30;;;;;;5040529;28;20029;-87
2023/09/27 03:41:13;;;;;;;8.02;2.90;;;12.10;83.70;;;;;;5040518;28;20021;-89
2023/09/27 03:43:39;;;;;;;4.05;3.63;;;12.00;83.70;;;;;;5039763;28;20450;-88
2023/09/27 03:46:05;;;;;;;3.97;2.85;;;12.20;83.80;;;;;;5023239;28;20053;-88
2023/09/27 03:48:32;;;;;;;6.15;3.30;;;12.20;83.60;;;;;;5039701;28;20055;-87
2023/09/27 03:50:58;;;;;;;5.25;2.95;;;12.20;83.40;;;;;;5039936;28;20147;-88
2023/09/27 03:53:24;;;;;;;8.65;3.45;;;12.10;83.30;;;;;;5040830;28;20132;-88
2023/09/27 03:55:49;;;;;;;8.50;3.50;;;12.10;83.10;;;;;;5042826;28;20029;-85
2023/09/27 03:58:15;;;;;;;4.68;3.40;;;12.00;83.00;;;;;;5042033;28;20129;-84
2023/09/27 04:00:40;;;;;;;4.28;3.28;;;12.00;83.00;;;;;;5039403;28;20028;-87
2023/09/27 04:03:07;;;;;;;6.07;3.22;;;11.90;83.00;;;;;;5039319;28;20044;-88
2023/09/27 04:05:34;;;;;;;6.05;3.33;;;11.80;83.20;;;;;;5022865;28;20509;-85
2023/09/27 04:08:00;;;;;;;4.88;3.95;;;11.80;83.80;;;;;;5039522;28;20121;-86
2023/09/27 04:10:28;;;;;;;5.93;3.72;;;11.80;83.90;;;;;;5023004;28;20056;-89
2023/09/27 04:12:54;;;;;;;5.13;3.60;;;11.80;84.00;;;;;;5039023;28;20060;-89
2023/09/27 04:15:20;;;;;;;4.10;3.70;;;11.80;83.70;;;;;;5038851;28;20032;-87
2023/09/27 04:17:46;;;;;;;6.40;3.15;;;11.90;83.50;;;;;;5039822;28;20033;-88
2023/09/27 04:20:17;;;;;;;4.90;3.30;;;11.80;83.30;;;;;;5039769;28;20029;-87
2023/09/27 04:22:44;;;;;;;5.43;3.50;;;11.80;83.50;;;;;;5039418;28;20111;-88
2023/09/27 04:25:14;;;;;;;6.18;3.70;;;11.90;83.50;;;;;;5022502;28;20056;-88
2023/09/27 04:27:45;;;;;;;4.05;3.20;;;11.80;83.30;;;;;;5038574;28;20101;-88
2023/09/27 04:30:15;;;;;;;4.95;3.28;;;11.80;83.30;;;;;;5039240;28;20124;-88
2023/09/27 04:32:45;;;;;;;4.35;2.90;;;11.80;83.20;;;;;;5023679;28;20029;-86
2023/09/27 04:35:13;;;;;;;5.18;2.65;;;11.80;82.90;;;;;;5040590;28;20029;-84
2023/09/27 04:37:40;;;;;;;4.22;3.38;;;11.80;83.10;;;;;;5042649;28;20029;-86
2023/09/27 04:40:11;;;;;;;6.47;3.45;;;11.80;83.40;;;;;;5045342;28;20037;-87
2023/09/27 04:42:37;;;;;;;4.55;3.45;;;11.80;83.20;;;;;;5058689;28;20043;-81
2023/09/27 04:45:04;;;;;;;6.97;3.85;;;11.80;83.10;;;;;;5074885;28;20128;-86
2023/09/27 04:47:30;;;;;;;5.93;3.33;;;11.70;83.10;;;;;;5040163;28;20025;-86
2023/09/27 04:49:56;;;;;;;6.43;3.20;;;11.80;83.30;;;;;;5038396;28;20056;-84
2023/09/27 04:52:22;;;;;;;4.22;3.20;;;11.70;83.30;;;;;;5038854;28;20120;-90
2023/09/27 04:54:53;;;;;;;7.30;3.00;;;11.70;83.30;;;;;;5039151;28;20482;-83
2023/09/27 04:57:19;;;;;;;7.22;3.20;;;11.70;83.00;;;;;;5039261;28;20032;-82
2023/09/27 04:59:45;;;;;;;3.05;2.75;;;11.70;82.80;;;;;;5039551;28;20032;-90
2023/09/27 05:02:10;;;;;;;4.80;3.17;;;11.80;82.80;;;;;;5038669;28;20029;-85
2023/09/27 05:04:36;;;;;;;8.45;3.33;;;11.80;82.60;;;;;;5039869;28;20029;-88
2023/09/27 05:07:03;;;;;;;6.00;3.15;;;11.70;82.50;;;;;;5049745;28;20401;-79
2023/09/27 05:09:29;;;;;;;5.30;2.80;;;11.80;82.40;;;;;;5059341;28;20021;-77
2023/09/27 05:11:54;;;;;;;6.30;3.03;;;11.80;82.50;;;;;;5059338;28;20045;-80
2023/09/27 05:14:20;;;;;;;4.85;3.30;;;11.90;82.40;;;;;;5045027;28;20068;-91
2023/09/27 05:16:46;;;;;;;5.10;2.90;;;11.80;82.70;;;;;;5038096;28;20033;-86
2023/09/27 05:19:12;;;;;;;4.95;3.25;;;11.80;82.70;;;;;;5024449;28;20040;-84
2023/09/27 05:21:38;;;;;;;4.90;3.08;;;11.80;82.20;;;;;;5039953;28;20035;-89
2023/09/27 05:24:06;;;;;;;7.00;3.65;;;11.90;82.30;;;;;;5039251;28;20111;-84
2023/09/27 05:26:32;;;;;;;5.03;2.90;;;11.80;82.20;;;;;;5006000;28;20111;-81
2023/09/27 05:28:58;;;;;;;4.78;2.97;;;11.70;82.40;;;;;;5021774;28;20040;-87
2023/09/27 05:31:24;;;;;;;4.90;3.38;;;11.80;82.30;;;;;;5038220;28;20365;-87
2023/09/27 05:33:50;;;;;;;5.85;3.25;;;11.70;82.60;;;;;;5038448;28;20118;-82
2023/09/27 05:36:20;;;;;;;3.65;2.90;;;11.70;82.90;;;;;;5053986;28;20431;-84
2023/09/27 05:38:46;;;;;;;6.32;3.35;;;11.70;82.70;;;;;;5037785;28;20025;-85
2023/09/27 05:41:13;;;;;;;9.23;3.47;;;11.70;82.50;;;;;;5037642;28;20480;-87
2023/09/27 05:43:40;;;;;;;5.45;3.67;;;11.70;82.30;;;;;;5055337;28;20028;-87
2023/09/27 05:46:07;;;;;;;5.63;3.10;;;11.70;82.20;;;;;;5036680;28;20051;-87
2023/09/27 05:48:33;;;;;;;5.80;3.30;;;11.60;82.10;;;;;;5037655;28;20115;-88
2023/09/27 05:50:59;;;;;;;6.25;3.88;;;11.70;82.40;;;;;;5021560;28;20048;-89
2023/09/27 05:53:26;;;;;;;5.88;3.45;;;11.60;82.10;;;;;;5037897;28;20033;-82
2023/09/27 05:55:53;;;;;;;5.00;3.33;;;11.70;82.30;;;;;;5038000;28;20112;-89
2023/09/27 05:58:19;;;;;;;5.00;3.58;;;11.70;82.90;;;;;;5039962;28;20473;-82
2023/09/27 06:00:47;;;;;;;7.00;3.58;;;11.80;81.70;;;;;;5039527;28;20029;-77
2023/09/27 06:03:13;;;;;;;5.28;4.00;;;11.80;81.60;;;;;;5066106;28;20052;-87
2023/09/27 06:05:41;;;;;;;3.42;3.10;;;11.80;81.50;;;;;;5037400;28;20025;-87
2023/09/27 06:08:07;;;;;;;6.38;3.13;;;11.90;81.40;;;;;;5021422;28;20488;-86
2023/09/27 06:10:33;;;;;;;6.13;4.07;;;11.90;81.20;;;;;;5021433;28;20162;-88
2023/09/27 06:12:59;;;;;;;6.68;4.32;;;11.90;81.60;;;;;;5036775;28;20029;-88
2023/09/27 06:15:25;;;;;;;4.40;4.00;;;12.00;81.80;;;;;;5037832;28;20033;-90
2023/09/27 06:17:51;;;;;;;6.22;3.85;;;11.90;82.00;;;;;;5020878;28;20029;-88
2023/09/27 06:20:20;;;;;;;6.40;3.97;;;12.00;81.70;;;;;;5037205;28;20028;-82
2023/09/27 06:22:52;;;;;;;5.68;3.70;;;12.10;81.40;;;;;;5037969;28;20461;-89
2023/09/27 06:25:19;;;;;;;6.35;3.83;;;12.10;81.20;;;;;;5038305;28;20082;-88
2023/09/27 06:27:45;;;;;;;7.72;3.80;;;12.10;80.80;;;;;;5037564;28;20027;-85
2023/09/27 06:30:12;;;;;;;3.47;3.17;;;12.30;80.70;;;;;;5037950;28;20525;-86
2023/09/27 06:32:38;;;;;;;5.25;3.10;;;12.40;80.50;;;;;;5037250;28;20029;-89
2023/09/27 06:35:12;;;;;;;5.88;3.13;;;12.50;80.30;;;;;;5021752;28;20036;-88
2023/09/27 06:37:48;;;;;;;5.78;3.33;;;12.60;79.80;;;;;;5057829;28;20021;-88
2023/09/27 06:40:17;;;;;;;3.42;2.83;;;12.70;79.60;;;;;;5037791;28;20056;-87
2023/09/27 06:42:47;;;;;;;3.80;2.80;;;12.90;79.30;;;;;;5053279;28;20029;-89
2023/09/27 06:45:15;;;;;;;4.03;2.75;;;13.00;78.90;;;;;;5054743;28;20041;-86
2023/09/27 06:47:42;;;;;;;10.52;3.42;;;13.20;78.50;;;;;;5037025;28;20029;-83
2023/09/27 06:50:09;;;;;;;6.32;3.17;;;13.30;78.20;;;;;;5055443;28;20032;-88
2023/09/27 06:52:37;;;;;;;5.40;3.20;;;13.30;78.00;;;;;;5036575;28;20025;-88
2023/09/27 06:55:03;;;;;;;7.28;3.53;;;13.40;77.80;;;;;;5036800;28;20029;-82
2023/09/27 06:57:30;;;;;;;4.55;2.70;;;13.40;77.80;;;;;;5019833;28;20060;-82
2023/09/27 06:59:58;;;;;;;4.68;3.00;;;13.50;78.00;;;;;;5036481;28;20037;-79
2023/09/27 07:02:24;;;;;;;4.55;3.33;;;13.60;77.50;;;;;;5036879;28;20036;-85
2023/09/27 07:04:50;;;;;;;6.50;3.15;;;13.70;77.30;;;;;;5054748;28;20025;-81
2023/09/27 07:07:16;;;;;;;10.70;4.05;;;13.80;77.10;;;;;;5035553;28;20124;-86
2023/09/27 07:09:48;;;;;;;6.60;3.40;;;14.00;78.80;;;;;;5003408;28;20048;-82
2023/09/27 07:12:15;;;;;;;7.43;3.25;;;14.20;78.00;;;;;;5051586;28;20029;-79
2023/09/27 07:15:22;;;;;;;7.00;3.58;;;14.40;78.00;;;;;;5037636;28;20044;-81
2023/09/27 07:18:07;;;;;;;7.28;3.35;;;14.60;76.00;;;;;;5042688;28;20029;-77
2023/09/27 07:20:34;;;;;;;4.57;3.17;;;14.80;75.40;;;;;;5034790;28;20025;-76
2023/09/27 07:23:03;;;;;;;5.93;2.53;;;15.00;75.10;;;;;;5034937;28;20028;-78
2023/09/27 07:25:38;;;;;;;5.78;3.10;;;15.20;74.70;;;;;;5034740;28;20031;-78
2023/09/27 07:28:05;;;;;;;4.40;3.20;;;15.40;74.00;;;;;;5029273;28;20386;-77
2023/09/27 07:30:39;;;;;;;5.88;2.80;;;15.40;74.20;;;;;;5034197;28;20033;-79
2023/09/27 07:33:11;;;;;;;7.93;3.50;;;15.40;74.70;;;;;;5049480;28;20040;-78
2023/09/27 07:35:51;;;;;;;5.28;3.13;;;15.50;75.50;;;;;;5052491;28;20108;-78
2023/09/27 07:38:43;;;;;;;6.85;3.10;;;15.60;74.90;;;;;;5023416;28;20029;-79
2023/09/27 07:41:31;;;;;;;5.43;3.00;;;15.70;74.30;;;;;;5055423;28;20094;-78
2023/09/27 07:43:58;;;;;;;6.43;2.95;;;15.90;74.00;;;;;;5037794;28;20025;-79
2023/09/27 07:47:02;;;;;;;6.20;3.72;;;16.00;73.90;;;;;;5021614;28;20103;-79
2023/09/27 07:49:39;;;;;;;5.53;3.08;;;16.10;74.80;;;;;;5055587;28;20028;-78
2023/09/27 07:52:34;;;;;;;4.47;2.95;;;16.20;74.10;;;;;;5055496;28;20048;-78
2023/09/27 07:55:09;;;;;;;7.68;2.90;;;16.40;73.50;;;;;;5053140;28;20056;-78
2023/09/27 07:57:52;;;;;;;3.58;2.50;;;16.50;72.90;;;;;;5055690;28;20103;-78
2023/09/27 08:00:29;;;;;;;6.30;2.53;;;16.60;72.60;;;;;;5033913;28;20041;-78
2023/09/27 08:03:23;;;;;;;4.60;2.60;;;16.70;72.50;;;;;;5035700;28;20041;-77
2023/09/27 08:05:50;;;;;;;4.82;3.03;;;16.90;72.20;;;;;;5053206;28;20120;-78
2023/09/27 08:08:24;;;;;;;4.43;2.72;;;17.10;71.80;;;;;;5048142;28;20045;-77
2023/09/27 08:11:14;;;;;;;3.72;2.58;;;17.30;71.30;;;;;;5032321;28;20025;-79
2023/09/27 08:20:40;;;;;;;5.28;3.00;;;17.70;70.10;;;;;;5055396;28;20044;-82
2023/09/27 08:23:33;;;;;;;;;;;18.00;70.90;;;;;;5022436;28;20651;-86
2023/09/27 08:27:01;;;;;;;16.58;9.20;;;18.10;70.10;;;;;;5013980;28;20386;-86
2023/09/27 08:30:54;;;;;;;8.80;4.13;;;18.40;69.60;;;;;;4992022;28;20459;-85
2023/09/27 08:37:39;;;;;;;6.95;3.53;;;18.90;67.40;;;;;;4936235;29;20050;-84
2023/09/27 08:40:26;;;;;;;7.13;3.65;;;19.20;66.60;;;;;;4935497;29;20031;-85
2023/09/27 08:54:54;;;;;;;5.57;2.40;;;20.10;63.20;;;;;;4906302;29;20104;-86
2023/09/27 08:58:40;;;;;;;5.82;2.92;;;20.40;62.70;;;;;;4837185;29;20037;-84
2023/09/27 09:05:04;;;;;;;4.07;2.30;;;20.70;62.20;;;;;;4816685;29;20046;-81
2023/09/27 09:07:38;;;;;;;3.53;2.53;;;20.90;62.20;;;;;;4863231;29;20041;-81
2023/09/27 09:10:05;;;;;;;4.97;2.45;;;21.00;61.40;;;;;;4868198;29;20049;-82
2023/09/27 09:13:24;;;;;;;4.15;2.60;;;21.20;60.20;;;;;;4904480;29;20469;-85
2023/09/27 09:16:17;;;;;;;5.13;2.80;;;21.40;60.40;;;;;;4928445;29;20100;-83
2023/09/27 09:18:48;;;;;;;3.72;2.67;;;21.60;58.80;;;;;;4931940;29;20087;-82
2023/09/27 09:21:21;;;;;;;6.95;2.72;;;21.70;59.00;;;;;;4943818;29;20078;-80
2023/09/27 09:23:58;;;;;;;5.63;2.58;;;21.80;58.30;;;;;;4943930;29;20486;-81
2023/09/27 09:26:29;;;;;;;4.70;2.72;;;21.80;57.10;;;;;;4954405;29;20036;-81
2023/09/27 09:28:59;;;;;;;4.22;2.30;;;21.80;58.00;;;;;;4954982;29;20120;-82
2023/09/27 09:31:28;;;;;;;4.85;2.70;;;22.00;57.80;;;;;;4955839;28;20059;-82
2023/09/27 09:34:24;;;;;;;5.65;2.72;;;22.20;58.30;;;;;;4972727;28;20097;-81
2023/09/27 09:36:55;;;;;;;5.68;2.17;;;22.30;56.30;;;;;;4967491;28;20043;-83
2023/09/27 09:39:28;;;;;;;3.38;2.00;;;22.40;56.30;;;;;;4959654;28;20039;-83
2023/09/27 09:41:58;;;;;;;3.78;2.00;;;22.50;53.20;;;;;;4964250;28;20023;-81
2023/09/27 09:44:25;;;;;;;2.10;1.70;;;22.60;50.00;;;;;;4970192;28;20031;-80
2023/09/27 09:46:56;;;;;;;3.40;1.90;;;22.80;47.60;;;;;;4976632;28;20112;-80
2023/09/27 09:49:22;;;;;;;2.00;1.70;;;23.00;47.70;;;;;;5011646;28;20040;-79
2023/09/27 09:51:50;;;;;;;2.22;1.80;;;23.10;47.20;;;;;;5027161;28;20462;-80
2023/09/27 09:54:36;;;;;;;4.63;1.73;;;23.30;46.70;;;;;;5032957;28;20033;-77
2023/09/27 09:57:06;;;;;;;3.40;1.70;;;23.50;47.60;;;;;;5050968;28;20035;-82
2023/09/27 09:59:41;;;;;;;3.28;1.50;;;23.80;46.90;;;;;;5046625;28;20026;-78
2023/09/27 10:02:21;;;;;;;2.88;1.80;;;23.90;44.20;;;;;;5031387;28;20390;-78
2023/09/27 10:04:55;;;;;;;4.55;1.70;;;24.00;43.80;;;;;;5026234;28;20022;-78
2023/09/27 10:07:21;;;;;;;2.10;1.88;;;24.10;45.20;;;;;;5026481;28;20018;-78
2023/09/27 10:09:48;;;;;;;3.55;1.92;;;24.30;45.30;;;;;;5034494;28;20013;-78
2023/09/27 10:12:15;;;;;;;2.50;1.80;;;24.50;44.50;;;;;;5049175;28;20025;-81
2023/09/27 10:14:42;;;;;;;2.25;1.48;;;24.60;42.20;;;;;;5028224;28;20430;-80
2023/09/27 10:17:20;;;;;;;2.15;1.73;;;24.70;42.20;;;;;;5028841;28;20025;-81
2023/09/27 10:20:12;;;;;;;2.95;1.90;;;24.80;42.40;;;;;;5034743;28;20075;-80
2023/09/27 10:22:42;;;;;;;1.75;1.50;;;24.90;41.00;;;;;;5031996;28;20026;-78
2023/09/27 10:25:26;;;;;;;1.80;1.60;;;25.00;42.00;;;;;;5032780;28;20124;-76
2023/09/27 10:28:01;;;;;;;1.55;1.30;;;25.30;41.70;;;;;;5035329;28;20376;-77
2023/09/27 10:30:48;;;;;;;2.30;1.52;;;25.40;40.90;;;;;;5030865;28;20043;-78
2023/09/27 10:33:20;;;;;;;4.45;1.58;;;25.60;40.60;;;;;;5030901;28;20036;-77
2023/09/27 10:35:48;;;;;;;2.83;1.42;;;25.70;40.60;;;;;;5033237;28;20071;-78
2023/09/27 10:38:15;;;;;;;4.47;1.45;;;25.90;40.40;;;;;;5034270;28;20024;-77
2023/09/27 10:40:45;;;;;;;2.50;1.40;;;26.10;38.40;;;;;;5031836;28;20044;-75
2023/09/27 10:43:33;;;;;;;2.00;1.73;;;26.10;38.70;;;;;;5045749;28;20860;-75
2023/09/27 10:45:59;;;;;;;2.20;1.40;;;26.30;37.80;;;;;;5033826;28;20367;-76
2023/09/27 10:48:25;;;;;;;2.83;1.55;;;26.40;37.10;;;;;;5033586;28;20028;-75
2023/09/27 10:50:52;;;;;;;2.72;1.30;;;26.50;37.90;;;;;;5034242;28;20044;-77
2023/09/27 10:53:19;;;;;;;2.17;1.42;;;26.60;37.30;;;;;;5033322;28;20044;-76
2023/09/27 10:55:45;;;;;;;3.42;1.27;;;26.80;36.80;;;;;;5034640;28;20025;-76
2023/09/27 10:58:17;;;;;;;1.88;1.27;;;26.80;34.80;;;;;;5034289;28;20086;-75
2023/09/27 11:00:56;;;;;;;2.55;1.65;;;26.80;34.10;;;;;;5050718;28;20029;-77
2023/09/27 11:03:25;;;;;;;2.55;1.42;;;26.70;34.20;;;;;;5050453;28;20482;-76
2023/09/27 11:05:51;;;;;;;2.60;1.20;;;26.60;33.00;;;;;;5050913;28;20025;-75
2023/09/27 11:08:24;;;;;;;1.90;1.33;;;26.50;32.60;;;;;;5053045;28;20105;-77
2023/09/27 11:10:52;;;;;;;2.83;1.30;;;26.50;32.50;;;;;;5035086;28;20025;-75
2023/09/27 11:13:19;;;;;;;1.73;1.20;;;26.40;33.60;;;;;;5054264;28;20448;-76
2023/09/27 11:15:44;;;;;;;1.52;1.30;;;26.40;33.90;;;;;;5055920;28;20025;-76
2023/09/27 11:18:11;;;;;;;1.52;1.25;;;26.30;34.60;;;;;;5033073;28;20146;-77
2023/09/27 11:20:37;;;;;;;1.92;1.38;;;26.30;34.10;;;;;;5021778;28;20033;-76
2023/09/27 11:23:03;;;;;;;2.92;1.30;;;26.40;34.20;;;;;;5053985;28;20036;-76
2023/09/27 11:25:35;;;;;;;1.27;1.17;;;26.60;30.70;;;;;;5056428;28;20033;-75
2023/09/27 11:28:02;;;;;;;1.75;1.40;;;26.80;30.90;;;;;;5055254;28;20044;-75
2023/09/27 11:30:34;;;;;;;1.38;1.25;;;26.90;31.10;;;;;;5055110;28;20515;-76
2023/09/27 11:33:04;;;;;;;1.92;1.30;;;27.10;30.60;;;;;;5055727;28;20072;-76
2023/09/27 11:35:30;;;;;;;1.83;1.20;;;27.20;30.80;;;;;;5054780;28;20111;-76
2023/09/27 11:38:13;;;;;;;2.97;1.08;;;27.40;31.00;;;;;;5056140;28;20025;-77
2023/09/27 11:40:41;;;;;;;2.17;1.80;;;27.70;30.80;;;;;;5038177;28;20033;-77
2023/09/27 11:43:07;;;;;;;2.38;1.45;;;27.90;31.40;;;;;;5054731;28;20025;-76
2023/09/27 11:45:46;;;;;;;4.45;1.80;;;28.10;27.60;;;;;;5054809;28;20060;-75
2023/09/27 11:48:12;;;;;;;2.47;1.83;;;28.20;29.20;;;;;;5038153;28;20021;-75
2023/09/27 11:50:38;;;;;;;2.10;1.80;;;28.30;26.30;;;;;;5037799;28;20039;-77
2023/09/27 11:53:04;;;;;;;2.28;1.50;;;28.40;26.30;;;;;;5038008;28;20056;-76
2023/09/27 11:55:30;;;;;;;2.30;1.45;;;28.60;25.10;;;;;;5053865;28;20044;-77
2023/09/27 11:58:00;;;;;;;7.20;3.10;;;28.80;25.60;;;;;;5037086;28;20032;-77
2023/09/27 12:00:26;;;;;;;1.40;1.00;;;28.80;25.80;;;;;;5037465;28;20025;-77
2023/09/27 12:02:52;;;;;;;4.57;1.95;;;28.70;24.70;;;;;;5037816;28;20091;-75
2023/09/27 12:05:18;;;;;;;1.55;1.45;;;28.60;25.30;;;;;;5036963;28;20036;-75
2023/09/27 12:07:44;;;;;;;2.00;1.58;;;28.60;25.60;;;;;;5037499;28;20025;-77
2023/09/27 12:10:10;;;;;;;2.92;1.45;;;28.70;26.00;;;;;;5054192;28;20028;-77
2023/09/27 12:12:37;;;;;;;1.92;1.50;;;28.70;25.50;;;;;;5053192;28;20118;-76
2023/09/27 12:15:03;;;;;;;2.38;1.33;;;28.80;23.50;;;;;;5035767;28;20382;-76
2023/09/27 12:17:30;;;;;;;3.70;1.48;;;28.90;23.20;;;;;;5035557;28;20037;-77
2023/09/27 12:19:56;;;;;;;3.30;1.95;;;29.00;23.90;;;;;;5035834;28;20021;-75
2023/09/27 12:22:23;;;;;;;4.57;2.58;;;29.10;24.90;;;;;;5035339;28;20021;-75
2023/09/27 12:24:48;;;;;;;2.45;1.60;;;29.10;24.80;;;;;;5054207;28;20025;-75
2023/09/27 12:27:14;;;;;;;1.60;1.50;;;29.10;23.80;;;;;;5036606;28;20021;-77
2023/09/27 12:29:40;;;;;;;3.53;1.40;;;29.10;24.10;;;;;;5036382;28;20428;-75
2023/09/27 12:32:05;;;;;;;2.25;1.73;;;29.20;23.90;;;;;;5020204;28;20458;-79
2023/09/27 12:34:31;;;;;;;1.60;1.50;;;29.30;24.50;;;;;;5054736;28;20123;-81
2023/09/27 12:36:57;;;;;;;1.98;1.33;;;29.50;24.30;;;;;;5037409;28;20083;-80
2023/09/27 12:39:23;;;;;;;1.30;1.20;;;29.80;25.00;;;;;;5037286;28;20036;-80
2023/09/27 12:41:48;;;;;;;1.90;1.38;;;29.90;23.90;;;;;;5037245;28;20017;-79
2023/09/27 12:44:14;;;;;;;2.13;1.27;;;30.10;23.70;;;;;;5035573;28;20053;-78
2023/09/27 12:46:40;;;;;;;1.77;1.27;;;30.30;24.00;;;;;;5035717;28;20037;-80
2023/09/27 12:49:06;;;;;;;2.60;1.63;;;30.40;22.20;;;;;;5036271;28;20024;-80
2023/09/27 12:51:32;;;;;;;2.38;1.55;;;30.50;23.10;;;;;;5037296;28;20047;-80
2023/09/27 12:53:57;;;;;;;5.65;3.40;;;30.50;22.80;;;;;;5037096;28;20078;-76
2023/09/27 12:56:23;;;;;;;2.15;1.60;;;30.20;22.10;;;;;;5037528;28;20025;-79
2023/09/27 12:58:48;;;;;;;3.65;1.70;;;30.20;22.80;;;;;;5037578;28;20025;-80
2023/09/27 13:01:18;;;;;;;1.75;1.50;;;30.30;22.00;;;;;;5037785;28;20036;-80
2023/09/27 13:03:44;;;;;;;1.50;1.27;;;30.30;21.50;;;;;;5039115;28;20453;-80
2023/09/27 13:06:10;;;;;;;1.50;1.40;;;30.30;21.80;;;;;;5036849;28;20461;-80
2023/09/27 13:08:36;;;;;;;4.10;2.00;;;30.30;21.80;;;;;;5036797;28;20079;-79
2023/09/27 13:11:02;;;;;;;4.57;2.40;;;30.10;22.00;;;;;;5036262;28;20119;-81
2023/09/27 13:13:29;;;;;;;2.13;1.92;;;30.20;21.10;;;;;;5036793;28;20043;-80
2023/09/27 13:15:55;;;;;;;1.92;1.55;;;30.00;21.50;;;;;;5036957;28;20469;-80
2023/09/27 13:18:20;;;;;;;2.97;1.65;;;30.00;21.00;;;;;;5036486;28;20024;-80
2023/09/27 13:20:46;;;;;;;2.47;1.67;;;30.00;21.10;;;;;;5038594;28;20389;-80
2023/09/27 13:23:11;;;;;;;2.13;1.55;;;29.60;21.60;;;;;;5039788;28;20048;-79
2023/09/27 13:25:37;;;;;;;3.45;1.60;;;29.70;21.80;;;;;;5043772;28;20127;-78
2023/09/27 13:28:03;;;;;;;2.97;2.15;;;29.60;22.30;;;;;;5036607;28;20017;-79